Madeline, California
Current Conditions -  °F | °C
As of 12:55 PM on Saturday 20 Dec 2014 (Local Time) from KAAT Reporting Station
Overcast Overcast  
Wind Chill: 38°   Ceiling: 2700
Heat Index: 42°   Visibility: 10mi
Dew Point: 37°   Wind: 6mph
Humidity: 82%   Direction: 190°S
Pressure: 30.03"   Gusts: NA
Location:  41.05°N, 120.48°W
Report Text: KAAT 202055Z AUTO 19005KT 10SM BKN027 OVC033 06/03 A3003 RMK AO2 RAE52 SLP169 P0003 60004 T00560028 58004
Loading
Personal Weather Stations






























Interactive Weather Map New forecast layout! Learn more

10-Day Weather Forecast

Advertisements
Track Severe Weather on mobile